« 燦くる~ず 伏木港 2014/7/16 wed | トップページ | 玉葱畑で見青げて!第28回札幌航空ページェント 札幌飛行場 2014/7/20 sun  »

2014/07/18

定点 富山空港 2014/7/16 wed

早朝の伏木港から河原に転戦。

空港ビルでは、魚津市のPRコーナーとなっていた。

20140716_rjnt_00terminal

じゃんとこい・・・

RJNT 160100Z 34008KT 7000 SCT010 BKN070 BKN100 24/20 Q1011

20140716_rjnt_01ja6769

JA6769 A109K2 富山県警察

20140716_rjnt_02b6041

20140716_rjnt_03b6041

CSN613 ZYTL-RJNT B-6041 A319-132

20140716_rjnt_04ja821a

20140716_rjnt_05ja821a

ANA883 RJTT-RJNT JA821A B787-8

RJNT 160200Z 34004KT 310V020 8000 FEW010 BKN060 24/21 Q1011

20140716_rjnt_06b18657

20140716_rjnt_07b18657

CAL170 RCTP-RJNT B-18657 B737-8FH

新しいリース機と思いきや、SMBCじゃないですか。

20140716_rjnt_08b18657

您好

20140716_rjnt_09b6041

20140716_rjnt_10b6041

CSN614 RJNT-ZYTL B-6041 A319-132

20140716_rjnt_11ja821a

20140716_rjnt_12ja821a

20140716_rjnt_13ja821a

20140716_rjnt_14ja821a

ANA886 RJNT-RJTT JA821A B787-8

RJNT 160400Z 01008KT 6000 -SHRA FEW010 BKN060 BKN090 24/21 Q1011

20140716_rjnt_15b18657

20140716_rjnt_16b18657

CAL171 RJNT-RCTP B-18657 B737-8FH

20140716_rjnt_17ja8595

20140716_rjnt_18ja8595

ADO120 RJCC-RJNT JA8595 B737-54K

RJNT 160500Z 06004KT 020V110 6000 -SHRA BKN010 BKN020 BKN060 24/21 Q1012

20140716_rjnt_19ja8569

20140716_rjnt_20ja8569

20140716_rjnt_21ja8569

ANA885 RJTT-RJNT JA8569 B767-381

20140716_rjnt_22ja8595

20140716_rjnt_23ja8595

ADO121 RJNT-RJCC JA8595 B737-54K

RJTT-RJNT
ANA     /882 JA8567
ANA881/884 JA8290
ANA883/886 JA212A
ANA885/888 JA8569
ANA887/890 JA818A
ANA889/892 JA819A
ANA891       JA8363

RJCC-RJNT
ADO120/121 JA8595

ZYTL-RJNT
CSN613/614 B-6041

RCTP-RJNT
CAL170/171 B-18657

|

« 燦くる~ず 伏木港 2014/7/16 wed | トップページ | 玉葱畑で見青げて!第28回札幌航空ページェント 札幌飛行場 2014/7/20 sun  »

富山空港」カテゴリの記事

コメント

コメントを書く



(ウェブ上には掲載しません)


コメントは記事投稿者が公開するまで表示されません。



トラックバック


この記事へのトラックバック一覧です: 定点 富山空港 2014/7/16 wed:

« 燦くる~ず 伏木港 2014/7/16 wed | トップページ | 玉葱畑で見青げて!第28回札幌航空ページェント 札幌飛行場 2014/7/20 sun  »